Oak Grove, Arkansas
Current Conditions -  °F | °C
As of 7:45 AM on Monday 20 Oct 2014 (Local Time) from KBBG Reporting Station
Overcast Overcast  
Wind Chill: 12°   Ceiling: 7500
Heat Index: 12°   Visibility: 10mi
Dew Point: 10°   Wind: 5mph
Humidity: 88%   Direction: 250°WSW
Pressure: 30.07"   Gusts: NA
Location:  36.46°N, 93.44°W
Report Text: KBBG 201245Z 25004KT 10SM SCT055 OVC075 12/10 A3007
Loading
Personal Weather Stations






























Interactive Weather Map
Tropical Storm Tracking
New forecast layout! Learn more

10-Day Weather Forecast

Advertisements
Track Severe Weather on mobile